createdAt,value
2018-02-10T00:01:24.919Z,82.30
2018-02-10T00:03:52.340Z,82.20
2018-02-10T00:06:19.785Z,81.70
2018-02-10T00:08:47.997Z,83.20
2018-02-10T00:11:15.447Z,83.10
2018-02-10T00:13:42.903Z,82.60
2018-02-10T00:16:10.344Z,82.00
2018-02-10T00:18:38.570Z,82.00
2018-02-10T00:21:05.977Z,82.00
2018-02-10T00:23:34.180Z,81.30
2018-02-10T00:26:01.616Z,81.30
2018-02-10T00:28:29.588Z,81.20
2018-02-10T00:30:57.046Z,81.10
2018-02-10T00:33:25.239Z,80.80
2018-02-10T00:35:52.665Z,80.80
2018-02-10T00:38:20.857Z,81.10
2018-02-10T00:40:48.291Z,81.10
2018-02-10T00:43:16.505Z,81.10
2018-02-10T00:45:43.944Z,81.00
2018-02-10T00:48:11.380Z,81.40
2018-02-10T00:50:38.877Z,81.60
2018-02-10T00:53:06.290Z,81.40
2018-02-10T00:55:34.488Z,82.00
2018-02-10T00:58:02.684Z,82.30
2018-02-10T01:00:30.113Z,82.20
2018-02-10T01:02:58.316Z,81.50
2018-02-10T01:05:25.736Z,81.40
2018-02-10T01:07:53.928Z,81.10
2018-02-10T01:10:21.357Z,81.10
2018-02-10T01:12:48.784Z,81.30
2018-02-10T01:15:16.216Z,82.40
2018-02-10T01:17:43.644Z,83.40
2018-02-10T01:20:11.836Z,82.10
2018-02-10T01:22:39.285Z,82.10
2018-02-10T01:25:06.706Z,81.40
2018-02-10T01:27:34.137Z,81.00
2018-02-10T01:30:01.585Z,81.30
2018-02-10T01:32:29.077Z,80.30
2018-02-10T01:34:56.509Z,80.40
2018-02-10T01:37:23.969Z,80.00
2018-02-10T01:39:51.404Z,80.20
2018-02-10T01:42:19.748Z,81.20
2018-02-10T01:44:48.883Z,82.00
2018-02-10T01:47:16.311Z,82.00
2018-02-10T01:49:44.520Z,81.80
2018-02-10T01:52:11.936Z,81.70
2018-02-10T01:54:40.200Z,82.70
2018-02-10T01:57:08.672Z,82.60
2018-02-10T01:59:36.108Z,82.70
2018-02-10T02:02:03.535Z,82.20
2018-02-10T02:04:30.976Z,81.10
2018-02-10T02:06:58.408Z,80.90
2018-02-10T02:09:25.936Z,81.00
2018-02-10T02:11:53.379Z,81.30
2018-02-10T02:14:20.833Z,81.00
2018-02-10T02:16:48.271Z,81.30
2018-02-10T02:19:16.450Z,82.00
2018-02-10T02:21:43.881Z,81.90
2018-02-10T02:24:12.616Z,81.40
2018-02-10T02:26:40.048Z,80.90
2018-02-10T02:29:07.472Z,80.60
2018-02-10T02:31:34.912Z,80.10
2018-02-10T02:34:02.328Z,81.40
2018-02-10T02:36:29.772Z,81.00
2018-02-10T02:38:57.209Z,80.30
2018-02-10T02:41:25.404Z,80.70
2018-02-10T02:43:52.824Z,80.60
2018-02-10T02:46:20.296Z,80.00
2018-02-10T02:48:47.709Z,80.20
2018-02-10T02:51:15.149Z,80.30
2018-02-10T02:53:42.584Z,81.00
2018-02-10T02:56:10.788Z,82.70
2018-02-10T02:58:38.217Z,82.60
2018-02-10T03:01:06.419Z,81.90
2018-02-10T03:03:33.852Z,81.90
2018-02-10T03:06:01.280Z,82.70
2018-02-10T03:08:28.712Z,82.60
2018-02-10T03:10:56.162Z,83.20
2018-02-10T03:13:23.616Z,83.20
2018-02-10T03:15:51.057Z,83.70
2018-02-10T03:18:18.488Z,83.70
2018-02-10T03:20:46.679Z,83.80
2018-02-10T03:23:14.108Z,83.80
2018-02-10T03:25:42.309Z,84.50
2018-02-10T03:28:09.766Z,84.50
2018-02-10T03:30:37.190Z,84.50
2018-02-10T03:33:04.645Z,84.90
2018-02-10T03:35:32.091Z,86.40
2018-02-10T03:37:59.534Z,86.40
2018-02-10T03:40:26.970Z,86.30
2018-02-10T03:42:54.395Z,86.80
2018-02-10T03:45:22.625Z,87.60
2018-02-10T03:47:50.097Z,87.60
2018-02-10T03:50:17.513Z,89.20
2018-02-10T03:52:44.940Z,90.50
2018-02-10T03:55:13.165Z,91.70
2018-02-10T03:57:40.594Z,91.70
2018-02-10T04:00:08.032Z,91.90
2018-02-10T04:02:36.226Z,92.30
2018-02-10T04:05:03.684Z,92.30
2018-02-10T04:07:31.862Z,92.60
2018-02-10T04:09:59.288Z,92.60
2018-02-10T04:12:27.504Z,92.50
2018-02-10T04:14:54.934Z,92.40
2018-02-10T04:17:23.135Z,92.30
2018-02-10T04:19:50.640Z,92.20
2018-02-10T04:22:18.075Z,91.80
2018-02-10T04:24:45.497Z,91.30
2018-02-10T04:27:12.953Z,91.00
2018-02-10T04:29:40.371Z,91.20
2018-02-10T04:32:07.811Z,91.60
2018-02-10T04:34:35.253Z,91.50
2018-02-10T04:37:02.707Z,91.10
2018-02-10T04:39:30.132Z,91.60
2018-02-10T04:41:57.573Z,92.10
2018-02-10T04:44:25.774Z,91.80
2018-02-10T04:46:53.225Z,91.80
2018-02-10T04:49:20.648Z,91.50
2018-02-10T04:51:48.082Z,92.30
2018-02-10T04:54:15.609Z,92.50
2018-02-10T04:56:43.804Z,92.10
2018-02-10T04:59:11.256Z,92.10
2018-02-10T05:01:38.704Z,92.20
2018-02-10T05:04:06.163Z,92.40
2018-02-10T05:06:33.610Z,92.10
2018-02-10T05:09:01.042Z,92.70
2018-02-10T05:11:29.243Z,93.00
2018-02-10T05:13:56.684Z,93.00
2018-02-10T05:16:24.100Z,92.80
2018-02-10T05:18:51.539Z,92.90
2018-02-10T05:21:18.959Z,92.80
2018-02-10T05:23:46.401Z,92.80
2018-02-10T05:26:14.588Z,92.90
2018-02-10T05:28:42.033Z,92.90
2018-02-10T05:31:10.238Z,92.10
2018-02-10T05:33:37.702Z,92.10
2018-02-10T05:36:05.884Z,92.50
2018-02-10T05:38:33.378Z,92.50
2018-02-10T05:41:01.568Z,92.50
2018-02-10T05:43:29.014Z,92.50
2018-02-10T05:45:56.433Z,91.70
2018-02-10T05:48:23.880Z,92.60
2018-02-10T05:50:51.347Z,92.60
2018-02-10T05:53:18.768Z,92.60
2018-02-10T05:55:46.969Z,93.00
2018-02-10T05:58:15.344Z,92.90
2018-02-10T06:00:42.779Z,93.00
2018-02-10T06:03:10.989Z,93.00
2018-02-10T06:05:38.460Z,93.00
2018-02-10T06:08:05.893Z,92.80
2018-02-10T06:10:33.337Z,93.00
2018-02-10T06:13:00.771Z,92.60
2018-02-10T06:15:28.989Z,93.00
2018-02-10T06:17:56.402Z,93.00
2018-02-10T06:20:24.613Z,93.10
2018-02-10T06:22:52.050Z,93.10
2018-02-10T06:25:20.279Z,93.30
2018-02-10T06:27:47.716Z,93.30
2018-02-10T06:30:15.182Z,93.60
2018-02-10T06:32:42.575Z,93.40
2018-02-10T06:35:10.010Z,93.20
2018-02-10T06:37:37.445Z,94.20
2018-02-10T06:40:04.881Z,93.80
2018-02-10T06:42:32.314Z,93.50
2018-02-10T06:45:00.527Z,93.70
2018-02-10T06:47:27.960Z,93.70
2018-02-10T06:49:56.163Z,93.80
2018-02-10T06:52:23.593Z,93.70
2018-02-10T06:54:51.024Z,93.90
2018-02-10T06:57:18.461Z,94.20
2018-02-10T06:59:45.910Z,93.90
2018-02-10T07:02:13.355Z,93.70
2018-02-10T07:04:40.844Z,94.00
2018-02-10T07:07:08.332Z,94.30
2018-02-10T07:09:36.612Z,94.10
2018-02-10T07:12:05.283Z,94.20
2018-02-10T07:14:32.742Z,94.20
2018-02-10T07:17:00.171Z,93.90
2018-02-10T07:19:32.304Z,94.00
2018-02-10T07:21:59.744Z,93.40
2018-02-10T07:24:28.230Z,93.70
2018-02-10T07:26:55.716Z,93.60
2018-02-10T07:29:23.506Z,93.60
2018-02-10T07:31:50.921Z,93.40
2018-02-10T07:34:18.348Z,93.00
2018-02-10T07:36:46.545Z,93.30
2018-02-10T07:39:14.373Z,93.20
2018-02-10T07:41:41.823Z,93.70
2018-02-10T07:44:09.256Z,93.50
2018-02-10T07:46:36.681Z,93.60
2018-02-10T07:49:04.668Z,93.50
2018-02-10T07:51:32.092Z,93.60
2018-02-10T07:54:00.309Z,93.40
2018-02-10T07:56:28.768Z,93.40
2018-02-10T07:58:56.775Z,94.00
2018-02-10T08:01:24.215Z,93.70
2018-02-10T08:03:51.640Z,93.50
2018-02-10T08:06:19.075Z,93.40
2018-02-10T08:08:48.224Z,94.00
2018-02-10T08:11:15.661Z,93.90
2018-02-10T08:13:43.120Z,93.20
2018-02-10T08:16:10.564Z,93.40
2018-02-10T08:18:38.776Z,92.80
2018-02-10T08:21:06.216Z,92.80
2018-02-10T08:23:33.675Z,92.40
2018-02-10T08:26:01.110Z,92.00
2018-02-10T08:28:29.322Z,91.90
2018-02-10T08:30:56.759Z,91.90
2018-02-10T08:33:24.184Z,91.80
2018-02-10T08:35:52.403Z,92.10
2018-02-10T08:38:19.837Z,92.10
2018-02-10T08:40:47.268Z,92.10
2018-02-10T08:43:15.490Z,91.90
2018-02-10T08:45:42.960Z,91.70
2018-02-10T08:48:10.407Z,91.40
2018-02-10T08:50:37.865Z,91.10
2018-02-10T08:53:05.293Z,91.10
2018-02-10T08:55:33.497Z,91.10
2018-02-10T08:58:00.943Z,91.00
2018-02-10T09:00:28.390Z,91.10
2018-02-10T09:02:56.704Z,91.50
2018-02-10T09:05:24.154Z,91.60
2018-02-10T09:07:51.577Z,91.50
2018-02-10T09:10:19.016Z,90.90
2018-02-10T09:12:47.242Z,91.00
2018-02-10T09:15:14.797Z,91.00
2018-02-10T09:17:42.208Z,91.30
2018-02-10T09:20:10.419Z,91.00
2018-02-10T09:22:37.858Z,91.00
2018-02-10T09:25:06.056Z,91.10
2018-02-10T09:27:33.488Z,91.10
2018-02-10T09:30:01.678Z,91.70
2018-02-10T09:32:29.152Z,91.70
2018-02-10T09:34:56.592Z,91.60
2018-02-10T09:37:24.869Z,92.20
2018-02-10T09:39:52.331Z,92.20
2018-02-10T09:42:20.564Z,91.90
2018-02-10T09:44:48.031Z,91.90
2018-02-10T09:47:15.465Z,91.90
2018-02-10T09:49:42.905Z,92.20
2018-02-10T09:52:10.399Z,91.90
2018-02-10T09:54:37.761Z,92.00
2018-02-10T09:57:05.956Z,92.20
2018-02-10T09:59:34.163Z,92.10
2018-02-10T10:02:01.596Z,92.10
2018-02-10T10:04:29.048Z,91.90
2018-02-10T10:06:56.472Z,92.10
2018-02-10T10:09:25.026Z,91.70
2018-02-10T10:11:52.466Z,91.70
2018-02-10T10:14:19.914Z,92.00
2018-02-10T10:16:47.392Z,91.50
2018-02-10T10:19:14.820Z,91.50
2018-02-10T10:21:42.261Z,91.80
2018-02-10T10:24:10.495Z,91.60
2018-02-10T10:26:37.929Z,91.60
2018-02-10T10:29:06.124Z,91.10
2018-02-10T10:31:33.563Z,91.00
2018-02-10T10:34:01.000Z,91.70
2018-02-10T10:36:28.430Z,92.00
2018-02-10T10:38:55.856Z,91.80
2018-02-10T10:41:24.195Z,92.10
2018-02-10T10:43:51.641Z,91.90
2018-02-10T10:46:19.837Z,92.20
2018-02-10T10:48:47.305Z,92.20
2018-02-10T10:51:14.745Z,92.50
2018-02-10T10:53:42.177Z,92.60
2018-02-10T10:56:10.368Z,93.00
2018-02-10T10:58:37.848Z,93.10
2018-02-10T11:01:05.298Z,93.30
2018-02-10T11:03:32.731Z,93.20
2018-02-10T11:06:00.916Z,92.60
2018-02-10T11:08:28.357Z,92.60
2018-02-10T11:10:56.564Z,92.90
2018-02-10T11:13:24.270Z,92.90
2018-02-10T11:15:51.756Z,92.40
2018-02-10T11:18:19.948Z,92.90
2018-02-10T11:20:47.384Z,92.90
2018-02-10T11:23:15.575Z,92.90
2018-02-10T11:25:43.004Z,92.60
2018-02-10T11:28:10.458Z,92.40
2018-02-10T11:30:37.888Z,92.50
2018-02-10T11:33:05.331Z,92.60
2018-02-10T11:35:32.756Z,92.90
2018-02-10T11:38:00.204Z,93.50
2018-02-10T11:40:28.400Z,93.20
2018-02-10T11:42:55.842Z,93.10
2018-02-10T11:45:24.952Z,93.20
2018-02-10T11:47:52.592Z,93.10
2018-02-10T11:50:20.807Z,93.40
2018-02-10T11:52:48.263Z,93.30
2018-02-10T11:55:15.679Z,93.40
2018-02-10T11:57:43.886Z,93.00
2018-02-10T12:00:11.361Z,93.00
2018-02-10T12:02:38.834Z,92.60
2018-02-10T12:05:06.229Z,92.20
2018-02-10T12:07:34.432Z,91.90
2018-02-10T12:10:02.619Z,91.90
2018-02-10T12:12:30.064Z,91.90
2018-02-10T12:14:57.506Z,92.10
2018-02-10T12:17:25.694Z,92.50
2018-02-10T12:19:53.136Z,92.50
2018-02-10T12:22:21.359Z,93.20
2018-02-10T12:24:48.799Z,93.10
2018-02-10T12:27:16.226Z,93.80
2018-02-10T12:29:44.431Z,93.30
2018-02-10T12:32:12.520Z,93.30
2018-02-10T12:34:39.959Z,93.40
2018-02-10T12:37:07.405Z,92.80
2018-02-10T12:39:34.832Z,92.90
2018-02-10T12:42:03.044Z,92.60
2018-02-10T12:44:30.467Z,92.60
2018-02-10T12:46:58.668Z,93.70
2018-02-10T12:49:32.696Z,93.70
2018-02-10T12:52:00.138Z,93.60
2018-02-10T12:54:27.583Z,93.50
2018-02-10T12:56:55.778Z,93.90
2018-02-10T12:59:23.212Z,93.90
2018-02-10T13:01:51.433Z,94.20
2018-02-10T13:04:18.846Z,94.10
2018-02-10T13:06:47.028Z,94.10
2018-02-10T13:09:14.476Z,94.10
2018-02-10T13:11:42.678Z,93.20
2018-02-10T13:14:10.121Z,93.20
2018-02-10T13:16:37.552Z,93.00
2018-02-10T13:19:05.751Z,92.60
2018-02-10T13:21:33.948Z,92.80
2018-02-10T13:24:01.373Z,92.80
2018-02-10T13:26:29.560Z,92.40
2018-02-10T13:28:57.004Z,92.40
2018-02-10T13:31:24.715Z,92.10
2018-02-10T13:33:52.150Z,92.10
2018-02-10T13:36:19.576Z,91.70
2018-02-10T13:38:47.768Z,91.20
2018-02-10T13:41:15.209Z,91.20
2018-02-10T13:43:43.412Z,91.60
2018-02-10T13:46:11.650Z,91.60
2018-02-10T13:48:39.837Z,91.00
2018-02-10T13:51:08.053Z,90.90
2018-02-10T13:53:35.484Z,90.90
2018-02-10T13:56:02.916Z,91.10
2018-02-10T13:58:30.356Z,91.10
2018-02-10T14:00:57.800Z,91.60
2018-02-10T14:03:25.254Z,91.40
2018-02-10T14:05:52.660Z,91.00
2018-02-10T14:08:20.092Z,91.50
2018-02-10T14:10:47.523Z,91.00
2018-02-10T14:13:14.957Z,91.80
2018-02-10T14:15:42.380Z,91.50
2018-02-10T14:18:10.596Z,91.20
2018-02-10T14:20:38.862Z,91.10
2018-02-10T14:23:06.271Z,91.00
2018-02-10T14:25:33.713Z,90.40
2018-02-10T14:28:01.143Z,90.80
2018-02-10T14:30:28.717Z,92.00
2018-02-10T14:32:56.154Z,92.20
2018-02-10T14:35:23.579Z,92.10
2018-02-10T14:37:51.776Z,91.50
2018-02-10T14:40:19.349Z,91.50
2018-02-10T14:42:46.752Z,91.90
2018-02-10T14:45:14.196Z,92.90
2018-02-10T14:47:41.624Z,92.10
2018-02-10T14:50:09.060Z,92.30
2018-02-10T14:52:36.488Z,92.60
2018-02-10T14:55:04.684Z,93.10
2018-02-10T14:57:32.116Z,93.10
2018-02-10T14:59:59.578Z,93.70
2018-02-10T15:02:27.788Z,94.00
2018-02-10T15:04:55.245Z,94.30
2018-02-10T15:07:22.673Z,94.60
2018-02-10T15:09:50.864Z,94.40
2018-02-10T15:12:18.288Z,94.40
2018-02-10T15:14:45.727Z,94.40
2018-02-10T15:17:13.191Z,94.40
2018-02-10T15:19:40.612Z,94.50
2018-02-10T15:22:08.037Z,94.50
2018-02-10T15:24:36.241Z,94.20
2018-02-10T15:27:03.672Z,94.20
2018-02-10T15:29:43.781Z,93.60
2018-02-10T15:32:24.013Z,93.60
2018-02-10T15:34:58.042Z,93.80
2018-02-10T15:37:25.476Z,94.20
2018-02-10T15:39:52.901Z,94.30
2018-02-10T15:42:21.641Z,93.70
2018-02-10T15:44:49.081Z,93.70
2018-02-10T15:47:16.510Z,94.00
2018-02-10T15:49:44.709Z,93.90
2018-02-10T15:52:13.037Z,93.90
2018-02-10T15:54:41.201Z,94.00
2018-02-10T15:57:09.554Z,94.00
2018-02-10T15:59:36.976Z,94.00
2018-02-10T16:02:05.179Z,94.80
2018-02-10T16:04:32.596Z,94.80
2018-02-10T16:07:00.784Z,94.60
2018-02-10T16:09:29.009Z,94.30
2018-02-10T16:11:56.438Z,94.20
2018-02-10T16:14:23.870Z,94.40
2018-02-10T16:16:52.064Z,94.40
2018-02-10T16:19:19.514Z,94.40
2018-02-10T16:21:47.709Z,94.70
2018-02-10T16:24:15.144Z,94.70
2018-02-10T16:26:43.349Z,95.00
2018-02-10T16:29:10.783Z,95.00
2018-02-10T16:31:38.969Z,94.90
2018-02-10T16:34:06.424Z,94.80
2018-02-10T16:36:33.858Z,95.00
2018-02-10T16:39:02.049Z,95.60
2018-02-10T16:41:30.295Z,95.50
2018-02-10T16:43:57.692Z,95.50
2018-02-10T16:46:25.173Z,95.40
2018-02-10T16:48:52.616Z,95.30
2018-02-10T16:51:20.057Z,95.40
2018-02-10T16:53:47.500Z,95.40
2018-02-10T16:56:15.717Z,95.50
2018-02-10T16:58:43.138Z,95.40
2018-02-10T17:01:11.334Z,95.80
2018-02-10T17:03:38.780Z,95.80
2018-02-10T17:06:06.972Z,95.30
2018-02-10T17:08:34.418Z,95.30
2018-02-10T17:11:02.706Z,95.40
2018-02-10T17:13:30.126Z,95.40
2018-02-10T17:15:58.325Z,96.00
2018-02-10T17:18:25.756Z,96.00
2018-02-10T17:20:53.964Z,95.70
2018-02-10T17:23:21.406Z,95.70
2018-02-10T17:25:48.845Z,95.30
2018-02-10T17:28:17.048Z,95.00
2018-02-10T17:30:44.480Z,95.00
2018-02-10T17:33:12.692Z,95.00
2018-02-10T17:35:40.254Z,94.90
2018-02-10T17:38:07.660Z,95.30
2018-02-10T17:40:35.092Z,95.40
2018-02-10T17:43:02.528Z,95.20
2018-02-10T17:45:29.961Z,95.50
2018-02-10T17:47:57.394Z,95.60
2018-02-10T17:50:25.340Z,95.60
2018-02-10T17:52:52.761Z,96.00
2018-02-10T17:55:20.204Z,95.90
2018-02-10T17:57:47.629Z,95.30
2018-02-10T18:00:15.092Z,95.30
2018-02-10T18:02:42.513Z,95.40
2018-02-10T18:05:09.952Z,95.90
2018-02-10T18:07:37.390Z,95.80
2018-02-10T18:10:04.828Z,95.60
2018-02-10T18:12:33.029Z,95.80
2018-02-10T18:15:00.554Z,95.80
2018-02-10T18:17:27.997Z,96.10
2018-02-10T18:19:55.424Z,96.10
2018-02-10T18:22:22.862Z,96.00
2018-02-10T18:24:50.298Z,96.00
2018-02-10T18:27:18.624Z,95.70
2018-02-10T18:29:46.084Z,95.70
2018-02-10T18:32:13.545Z,95.20
2018-02-10T18:34:41.022Z,95.00
2018-02-10T18:37:08.468Z,95.00
2018-02-10T18:39:35.908Z,94.90
2018-02-10T18:42:03.353Z,94.70
2018-02-10T18:44:30.790Z,94.40
2018-02-10T18:46:58.228Z,93.90
2018-02-10T18:49:26.418Z,94.20
2018-02-10T18:51:53.854Z,94.20
2018-02-10T18:54:22.052Z,94.50
2018-02-10T18:56:49.496Z,94.30
2018-02-10T18:59:17.745Z,94.30
2018-02-10T19:01:45.181Z,94.30
2018-02-10T19:04:12.623Z,94.40
2018-02-10T19:06:40.079Z,94.00
2018-02-10T19:09:07.506Z,93.80
2018-02-10T19:11:35.716Z,93.70
2018-02-10T19:14:03.180Z,93.70
2018-02-10T19:16:30.649Z,93.70
2018-02-10T19:18:58.777Z,93.90
2018-02-10T19:21:26.217Z,93.90
2018-02-10T19:23:54.420Z,94.10
2018-02-10T19:26:21.866Z,94.10
2018-02-10T19:28:49.295Z,94.20
2018-02-10T19:31:16.724Z,93.70
2018-02-10T19:33:44.176Z,93.60
2018-02-10T19:36:11.604Z,93.30
2018-02-10T19:38:39.037Z,93.40
2018-02-10T19:41:07.242Z,93.70
2018-02-10T19:43:34.684Z,93.70
2018-02-10T19:46:02.904Z,93.70
2018-02-10T19:48:30.337Z,93.70
2018-02-10T19:50:57.760Z,93.60
2018-02-10T19:53:25.515Z,93.30
2018-02-10T19:55:52.918Z,92.70
2018-02-10T19:58:20.342Z,92.90
2018-02-10T20:00:48.533Z,92.40
2018-02-10T20:03:15.964Z,92.40
2018-02-10T20:05:44.158Z,92.60
2018-02-10T20:08:11.644Z,92.40
2018-02-10T20:10:39.068Z,92.60
2018-02-10T20:13:11.134Z,92.30
2018-02-10T20:15:43.224Z,92.20
2018-02-10T20:18:12.331Z,92.00
2018-02-10T20:20:42.277Z,91.60
2018-02-10T20:23:09.779Z,91.90
2018-02-10T20:25:37.220Z,91.80
2018-02-10T20:28:05.466Z,92.10
2018-02-10T20:30:32.948Z,92.00
2018-02-10T20:33:00.368Z,91.40
2018-02-10T20:35:27.912Z,91.30
2018-02-10T20:37:55.320Z,91.30
2018-02-10T20:40:23.527Z,91.20
2018-02-10T20:42:50.949Z,90.80
2018-02-10T20:45:18.668Z,90.80
2018-02-10T20:47:46.123Z,90.60
2018-02-10T20:50:13.548Z,90.50
2018-02-10T20:52:41.854Z,90.40
2018-02-10T20:55:09.260Z,90.40
2018-02-10T20:57:36.702Z,90.80
2018-02-10T21:00:04.133Z,90.70
2018-02-10T21:02:31.557Z,90.50
2018-02-10T21:04:58.977Z,90.60
2018-02-10T21:07:26.400Z,90.40
2018-02-10T21:09:53.819Z,90.10
2018-02-10T21:12:22.044Z,90.10
2018-02-10T21:14:49.484Z,90.10
2018-02-10T21:17:17.220Z,89.90
2018-02-10T21:19:45.429Z,89.80
2018-02-10T21:22:12.852Z,89.80
2018-02-10T21:24:41.060Z,90.10
2018-02-10T21:27:08.476Z,90.10
2018-02-10T21:29:36.668Z,90.20
2018-02-10T21:32:04.106Z,90.20
2018-02-10T21:34:32.448Z,89.30
2018-02-10T21:36:59.897Z,89.30
2018-02-10T21:39:27.347Z,88.50
2018-02-10T21:41:54.764Z,88.00
2018-02-10T21:44:22.958Z,86.60
2018-02-10T21:46:50.398Z,86.60
2018-02-10T21:49:18.604Z,86.30
2018-02-10T21:51:46.045Z,86.30
2018-02-10T21:54:13.477Z,86.40
2018-02-10T21:56:41.685Z,86.60
2018-02-10T21:59:09.116Z,86.50
2018-02-10T22:01:37.317Z,84.80
2018-02-10T22:04:04.785Z,84.70
2018-02-10T22:06:32.240Z,85.60
2018-02-10T22:08:59.652Z,84.40
2018-02-10T22:11:27.079Z,83.80
2018-02-10T22:13:54.499Z,83.30
2018-02-10T22:16:21.927Z,82.80
2018-02-10T22:18:50.132Z,82.80
2018-02-10T22:21:17.583Z,82.70
2018-02-10T22:23:44.998Z,82.20
2018-02-10T22:26:12.423Z,82.50
2018-02-10T22:28:39.856Z,81.00
2018-02-10T22:31:07.300Z,80.90
2018-02-10T22:33:35.490Z,81.00
2018-02-10T22:36:03.708Z,81.00
2018-02-10T22:38:31.153Z,81.50
2018-02-10T22:40:58.575Z,81.10
2018-02-10T22:43:26.963Z,81.20
2018-02-10T22:45:54.699Z,81.20
2018-02-10T22:48:22.896Z,81.30
2018-02-10T22:50:50.344Z,81.30
2018-02-10T22:53:18.552Z,81.70
2018-02-10T22:55:45.984Z,81.70
2018-02-10T22:58:13.417Z,81.50
2018-02-10T23:00:40.869Z,81.80
2018-02-10T23:03:09.068Z,81.50
2018-02-10T23:05:36.500Z,81.40
2018-02-10T23:08:03.968Z,81.30
2018-02-10T23:10:32.173Z,80.60
2018-02-10T23:12:59.612Z,80.50
2018-02-10T23:15:27.814Z,81.90
2018-02-10T23:17:55.233Z,81.80
2018-02-10T23:20:23.453Z,83.70
2018-02-10T23:22:50.969Z,83.50
2018-02-10T23:25:19.183Z,82.60
2018-02-10T23:27:46.633Z,82.50
2018-02-10T23:30:14.058Z,82.30
2018-02-10T23:32:42.256Z,82.10
2018-02-10T23:35:09.684Z,82.10
2018-02-10T23:37:37.944Z,81.50
2018-02-10T23:40:05.387Z,81.40
2018-02-10T23:42:32.851Z,82.20
2018-02-10T23:45:00.629Z,82.40
2018-02-10T23:47:28.088Z,81.50
2018-02-10T23:49:55.545Z,80.40
2018-02-10T23:52:22.979Z,80.80
2018-02-10T23:54:50.416Z,80.60
2018-02-10T23:57:17.841Z,80.00
2018-02-10T23:59:46.122Z,79.50
